createdAt,value
2018-11-05T00:00:15.098Z,10.07
2018-11-05T00:02:50.986Z,9.60
2018-11-05T00:05:25.286Z,10.03
2018-11-05T00:07:59.478Z,9.97
2018-11-05T00:10:33.754Z,10.90
2018-11-05T00:13:08.061Z,9.90
2018-11-05T00:15:42.301Z,10.57
2018-11-05T00:18:16.661Z,10.23
2018-11-05T00:20:50.943Z,10.77
2018-11-05T00:23:25.318Z,10.93
2018-11-05T00:25:59.598Z,10.20
2018-11-05T00:28:33.754Z,10.20
2018-11-05T00:31:08.158Z,10.47
2018-11-05T00:33:42.631Z,10.90
2018-11-05T00:36:16.878Z,10.97
2018-11-05T00:38:51.078Z,10.90
2018-11-05T00:41:25.274Z,11.53
2018-11-05T00:43:59.686Z,10.97
2018-11-05T00:46:34.022Z,11.83
2018-11-05T00:49:08.864Z,10.90
2018-11-05T00:51:43.167Z,11.97
2018-11-05T00:54:17.449Z,10.97
2018-11-05T00:56:51.850Z,12.43
2018-11-05T00:59:26.250Z,12.00
2018-11-05T01:02:00.554Z,11.47
2018-11-05T01:04:34.895Z,12.13
2018-11-05T01:07:09.162Z,12.43
2018-11-05T01:09:43.522Z,11.83
2018-11-05T01:12:17.891Z,11.90
2018-11-05T01:14:52.202Z,12.10
2018-11-05T01:17:26.369Z,12.07
2018-11-05T01:20:00.564Z,12.23
2018-11-05T01:22:34.982Z,12.57
2018-11-05T01:25:09.400Z,13.10
2018-11-05T01:27:43.657Z,13.67
2018-11-05T01:30:17.997Z,13.23
2018-11-05T01:32:52.249Z,12.83
2018-11-05T01:35:26.746Z,12.73
2018-11-05T01:38:00.922Z,12.83
2018-11-05T01:40:35.112Z,13.23
2018-11-05T01:43:09.382Z,13.17
2018-11-05T01:45:43.594Z,13.27
2018-11-05T01:48:17.850Z,14.00
2018-11-05T01:50:52.119Z,13.57
2018-11-05T01:53:26.313Z,14.03
2018-11-05T01:56:00.535Z,13.87
2018-11-05T01:58:34.836Z,12.47
2018-11-05T02:01:09.106Z,14.80
2018-11-05T02:03:43.338Z,14.03
2018-11-05T02:06:17.634Z,13.60
2018-11-05T02:08:51.799Z,14.27
2018-11-05T02:11:26.190Z,14.77
2018-11-05T02:14:00.414Z,14.30
2018-11-05T02:16:34.738Z,14.83
2018-11-05T02:19:09.010Z,15.23
2018-11-05T02:21:43.315Z,15.17
2018-11-05T02:24:17.441Z,15.63
2018-11-05T02:26:51.885Z,15.20
2018-11-05T02:29:26.211Z,14.73
2018-11-05T02:32:00.510Z,15.27
2018-11-05T02:34:34.822Z,15.10
2018-11-05T02:37:09.117Z,15.37
2018-11-05T02:39:43.492Z,15.23
2018-11-05T02:42:17.890Z,14.97
2018-11-05T02:44:52.139Z,15.07
2018-11-05T02:47:26.340Z,16.13
2018-11-05T02:50:00.679Z,15.30
2018-11-05T02:52:34.998Z,15.57
2018-11-05T02:55:09.862Z,15.23
2018-11-05T02:57:44.142Z,15.33
2018-11-05T03:00:19.531Z,15.83
2018-11-05T03:02:53.835Z,16.03
2018-11-05T03:05:28.090Z,15.13
2018-11-05T03:08:02.384Z,14.93
2018-11-05T03:10:36.542Z,14.80
2018-11-05T03:13:10.869Z,16.37
2018-11-05T03:15:45.279Z,16.63
2018-11-05T03:18:19.550Z,17.23
2018-11-05T03:20:54.008Z,16.73
2018-11-05T03:23:28.333Z,16.63
2018-11-05T03:26:02.601Z,15.33
2018-11-05T03:28:36.922Z,15.87
2018-11-05T03:31:11.170Z,14.67
2018-11-05T03:33:45.554Z,14.87
2018-11-05T03:36:19.807Z,15.17
2018-11-05T03:38:54.258Z,13.20
2018-11-05T03:41:28.633Z,14.13
2018-11-05T03:44:03.002Z,13.57
2018-11-05T03:46:37.451Z,13.83
2018-11-05T03:49:12.631Z,13.40
2018-11-05T03:51:46.758Z,13.17
2018-11-05T03:54:20.910Z,17.52
2018-11-05T03:56:55.103Z,14.00
2018-11-05T03:59:29.346Z,14.40
2018-11-05T04:02:03.613Z,13.77
2018-11-05T04:04:38.038Z,12.57
2018-11-05T04:07:12.417Z,13.97
2018-11-05T04:09:46.802Z,13.57
2018-11-05T04:12:21.050Z,14.50
2018-11-05T04:14:55.481Z,13.90
2018-11-05T04:17:29.772Z,14.20
2018-11-05T04:20:04.854Z,13.87
2018-11-05T04:22:39.142Z,14.13
2018-11-05T04:25:13.434Z,14.20
2018-11-05T04:27:47.811Z,14.33
2018-11-05T04:30:22.161Z,13.50
2018-11-05T04:32:56.573Z,14.47
2018-11-05T04:35:30.954Z,14.27
2018-11-05T04:38:05.294Z,14.30
2018-11-05T04:40:39.434Z,15.30
2018-11-05T04:43:13.818Z,14.77
2018-11-05T04:45:48.093Z,14.37
2018-11-05T04:48:22.502Z,13.83
2018-11-05T04:50:56.890Z,15.13
2018-11-05T04:53:31.155Z,14.50
2018-11-05T04:56:05.782Z,15.27
2018-11-05T04:58:39.947Z,14.83
2018-11-05T05:01:14.266Z,15.40
2018-11-05T05:03:48.580Z,15.20
2018-11-05T05:06:22.871Z,15.13
2018-11-05T05:08:57.384Z,15.70
2018-11-05T05:11:31.737Z,19.25
2018-11-05T05:14:06.717Z,17.97
2018-11-05T05:16:40.944Z,16.27
2018-11-05T05:19:15.266Z,15.37
2018-11-05T05:21:49.574Z,15.97
2018-11-05T05:24:23.911Z,16.17
2018-11-05T05:26:58.086Z,15.63
2018-11-05T05:29:32.360Z,16.37
2018-11-05T05:32:06.758Z,16.20
2018-11-05T05:34:41.011Z,16.73
2018-11-05T05:37:15.263Z,15.20
2018-11-05T05:39:49.642Z,16.43
2018-11-05T05:42:23.798Z,16.23
2018-11-05T05:44:58.146Z,16.17
2018-11-05T05:47:32.494Z,15.77
2018-11-05T05:50:10.316Z,16.33
2018-11-05T05:52:45.790Z,15.80
2018-11-05T05:55:19.923Z,16.10
2018-11-05T05:57:54.253Z,17.00
2018-11-05T06:00:28.555Z,17.03
2018-11-05T06:03:02.802Z,16.57
2018-11-05T06:05:37.206Z,15.50
2018-11-05T06:08:11.424Z,15.13
2018-11-05T06:10:45.797Z,16.13
2018-11-05T06:13:19.998Z,16.90
2018-11-05T06:15:54.345Z,17.23
2018-11-05T06:18:28.670Z,16.87
2018-11-05T06:21:02.982Z,16.47
2018-11-05T06:23:37.207Z,16.53
2018-11-05T06:26:11.630Z,16.23
2018-11-05T06:28:45.945Z,17.23
2018-11-05T06:31:20.185Z,17.40
2018-11-05T06:33:54.374Z,16.33
2018-11-05T06:36:28.689Z,18.17
2018-11-05T06:39:02.815Z,17.17
2018-11-05T06:41:37.158Z,16.67
2018-11-05T06:44:11.300Z,17.50
2018-11-05T06:46:45.698Z,17.43
2018-11-05T06:49:20.014Z,17.53
2018-11-05T06:51:54.284Z,17.07
2018-11-05T06:54:28.613Z,18.47
2018-11-05T06:57:02.889Z,17.67
2018-11-05T06:59:37.207Z,17.03
2018-11-05T07:02:11.701Z,16.80
2018-11-05T07:04:46.119Z,17.03
2018-11-05T07:07:20.246Z,17.17
2018-11-05T07:09:54.589Z,16.97
2018-11-05T07:12:28.715Z,16.90
2018-11-05T07:15:03.151Z,16.97
2018-11-05T07:17:37.470Z,15.47
2018-11-05T07:20:13.733Z,16.63
2018-11-05T07:22:48.649Z,16.10
2018-11-05T07:25:22.926Z,16.23
2018-11-05T07:27:57.198Z,16.10
2018-11-05T07:30:31.606Z,16.87
2018-11-05T07:33:05.941Z,16.67
2018-11-05T07:35:40.161Z,15.70
2018-11-05T07:38:14.338Z,17.13
2018-11-05T07:40:48.738Z,16.10
2018-11-05T07:43:23.015Z,16.50
2018-11-05T07:45:57.347Z,16.23
2018-11-05T07:48:31.681Z,16.60
2018-11-05T07:51:06.043Z,16.50
2018-11-05T07:53:40.286Z,15.90
2018-11-05T07:56:14.535Z,15.70
2018-11-05T07:58:48.804Z,17.20
2018-11-05T08:01:22.981Z,17.13
2018-11-05T08:03:57.337Z,15.03
2018-11-05T08:06:31.725Z,16.43
2018-11-05T08:09:07.849Z,16.97
2018-11-05T08:11:42.018Z,17.43
2018-11-05T08:14:16.246Z,17.67
2018-11-05T08:16:50.489Z,16.73
2018-11-05T08:19:24.875Z,17.43
2018-11-05T08:21:59.279Z,17.47
2018-11-05T08:24:33.758Z,17.70
2018-11-05T08:27:08.110Z,18.17
2018-11-05T08:29:42.503Z,17.27
2018-11-05T08:32:16.818Z,18.07
2018-11-05T08:34:51.115Z,17.33
2018-11-05T08:37:25.527Z,16.27
2018-11-05T08:39:59.707Z,18.50
2018-11-05T08:42:33.982Z,17.97
2018-11-05T08:45:08.370Z,17.30
2018-11-05T08:47:42.919Z,17.93
2018-11-05T08:50:18.494Z,18.33
2018-11-05T08:52:52.721Z,17.53
2018-11-05T08:55:27.582Z,18.17
2018-11-05T08:58:01.854Z,18.80
2018-11-05T09:00:41.582Z,19.17
2018-11-05T09:03:15.858Z,18.03
2018-11-05T09:05:50.038Z,17.87
2018-11-05T09:08:24.343Z,17.20
2018-11-05T09:10:59.031Z,18.83
2018-11-05T09:13:32.950Z,17.93
2018-11-05T09:16:07.363Z,17.93
2018-11-05T09:18:41.534Z,16.87
2018-11-05T09:21:15.782Z,17.17
2018-11-05T09:23:50.224Z,17.17
2018-11-05T09:26:24.598Z,16.20
2018-11-05T09:28:59.000Z,16.90
2018-11-05T09:31:33.162Z,16.40
2018-11-05T09:34:07.623Z,17.83
2018-11-05T09:36:41.971Z,16.63
2018-11-05T09:39:16.314Z,16.47
2018-11-05T09:41:50.706Z,16.63
2018-11-05T09:44:25.023Z,17.13
2018-11-05T09:50:06.258Z,17.83
2018-11-05T09:52:40.585Z,17.73
2018-11-05T09:55:15.293Z,17.47
2018-11-05T09:57:49.484Z,16.83
2018-11-05T10:00:25.422Z,18.07
2018-11-05T10:03:00.736Z,17.13
2018-11-05T10:05:34.998Z,17.30
2018-11-05T10:08:09.423Z,16.50
2018-11-05T10:10:43.741Z,16.13
2018-11-05T10:13:18.018Z,17.33
2018-11-05T10:15:52.254Z,17.63
2018-11-05T10:18:26.474Z,18.40
2018-11-05T10:21:00.896Z,16.43
2018-11-05T10:23:35.115Z,15.87
2018-11-05T10:26:09.478Z,16.90
2018-11-05T10:28:43.589Z,17.33
2018-11-05T10:31:23.279Z,16.20
2018-11-05T10:33:57.415Z,16.67
2018-11-05T10:36:31.713Z,16.00
2018-11-05T10:39:07.938Z,16.53
2018-11-05T10:41:42.259Z,16.87
2018-11-05T10:44:16.636Z,16.70
2018-11-05T10:46:50.754Z,21.07
2018-11-05T10:49:24.988Z,16.80
2018-11-05T10:51:59.240Z,18.87
2018-11-05T10:54:33.494Z,18.60
2018-11-05T10:57:07.734Z,17.20
2018-11-05T10:59:41.964Z,17.33
2018-11-05T11:02:21.790Z,18.50
2018-11-05T11:04:55.943Z,17.37
2018-11-05T11:07:30.327Z,18.23
2018-11-05T11:10:05.218Z,20.40
2018-11-05T11:12:39.443Z,17.47
2018-11-05T11:15:13.984Z,18.30
2018-11-05T11:17:48.136Z,18.37
2018-11-05T11:20:22.346Z,16.63
2018-11-05T11:22:56.699Z,17.77
2018-11-05T11:25:31.038Z,17.77
2018-11-05T11:28:05.420Z,18.10
2018-11-05T11:30:39.574Z,17.87
2018-11-05T11:33:13.914Z,18.07
2018-11-05T11:35:48.204Z,18.63
2018-11-05T11:38:22.434Z,16.73
2018-11-05T11:40:56.765Z,16.40
2018-11-05T11:43:31.155Z,17.30
2018-11-05T11:46:05.820Z,17.67
2018-11-05T11:48:39.992Z,18.17
2018-11-05T11:51:14.332Z,17.97
2018-11-05T11:53:48.626Z,17.53
2018-11-05T11:56:23.980Z,18.17
2018-11-05T11:58:58.370Z,17.60
2018-11-05T12:01:36.992Z,17.30
2018-11-05T12:04:11.195Z,19.13
2018-11-05T12:06:45.999Z,17.03
2018-11-05T12:09:20.214Z,17.03
2018-11-05T12:11:54.520Z,16.80
2018-11-05T12:14:28.803Z,16.97
2018-11-05T12:17:03.130Z,16.57
2018-11-05T12:19:37.462Z,16.63
2018-11-05T12:22:11.855Z,16.30
2018-11-05T12:24:46.279Z,17.70
2018-11-05T12:27:20.454Z,16.57
2018-11-05T12:29:54.734Z,19.50
2018-11-05T12:32:28.969Z,16.97
2018-11-05T12:35:03.266Z,17.63
2018-11-05T12:37:37.542Z,17.27
2018-11-05T12:40:13.531Z,16.63
2018-11-05T12:42:48.788Z,16.20
2018-11-05T12:45:25.842Z,16.00
2018-11-05T12:48:00.083Z,16.77
2018-11-05T12:50:34.546Z,17.50
2018-11-05T12:53:08.889Z,17.57
2018-11-05T12:55:43.200Z,16.83
2018-11-05T12:58:17.370Z,16.90
2018-11-05T13:00:51.813Z,17.63
2018-11-05T13:03:26.203Z,16.03
2018-11-05T13:06:00.690Z,17.70
2018-11-05T13:08:34.881Z,17.70
2018-11-05T13:11:09.264Z,18.00
2018-11-05T13:13:43.694Z,17.93
2018-11-05T13:16:18.000Z,18.90
2018-11-05T13:18:52.434Z,18.07
2018-11-05T13:21:26.674Z,18.57
2018-11-05T13:24:00.970Z,19.03
2018-11-05T13:26:35.387Z,18.37
2018-11-05T13:29:09.813Z,18.77
2018-11-05T13:31:44.122Z,19.57
2018-11-05T13:34:18.311Z,19.40
2018-11-05T13:36:52.744Z,19.27
2018-11-05T13:39:26.906Z,18.27
2018-11-05T13:42:01.370Z,18.87
2018-11-05T13:44:35.627Z,20.30
2018-11-05T13:47:10.487Z,21.70
2018-11-05T13:49:44.698Z,21.17
2018-11-05T13:52:18.907Z,20.07
2018-11-05T13:54:53.344Z,21.43
2018-11-05T13:57:27.460Z,22.60
2018-11-05T14:00:01.934Z,21.63
2018-11-05T14:02:36.104Z,21.37
2018-11-05T14:05:10.981Z,21.80
2018-11-05T14:07:45.145Z,21.43
2018-11-05T14:10:20.687Z,20.77
2018-11-05T14:12:54.871Z,20.30
2018-11-05T14:15:29.218Z,21.67
2018-11-05T14:18:03.501Z,19.37
2018-11-05T14:20:37.677Z,21.43
2018-11-05T14:23:12.042Z,21.00
2018-11-05T14:25:46.353Z,20.43
2018-11-05T14:28:20.720Z,21.83
2018-11-05T14:30:54.670Z,20.73
2018-11-05T14:33:28.907Z,21.40
2018-11-05T14:36:03.301Z,19.90
2018-11-05T14:38:37.824Z,20.40
2018-11-05T14:41:12.130Z,19.80
2018-11-05T14:43:46.437Z,19.90
2018-11-05T14:46:20.789Z,21.93
2018-11-05T14:48:54.986Z,54.13
2018-11-05T14:51:29.185Z,98.97
2018-11-05T14:54:03.689Z,38.33
2018-11-05T14:56:37.982Z,20.20
2018-11-05T14:59:12.486Z,19.47
2018-11-05T15:01:46.846Z,152.37
2018-11-05T15:04:21.241Z,114.37
2018-11-05T15:06:55.625Z,41.70
2018-11-05T15:09:29.863Z,21.03
2018-11-05T15:12:04.156Z,21.70
2018-11-05T15:14:38.446Z,21.03
2018-11-05T15:17:12.790Z,22.73
2018-11-05T15:19:47.542Z,22.27
2018-11-05T15:22:21.454Z,22.53
2018-11-05T15:24:55.740Z,38.17
2018-11-05T15:27:30.094Z,34.17
2018-11-05T15:30:05.557Z,24.93
2018-11-05T15:32:40.800Z,21.60
2018-11-05T15:35:15.382Z,21.77
2018-11-05T15:37:49.705Z,21.33
2018-11-05T15:40:23.955Z,21.87
2018-11-05T15:42:58.386Z,22.50
2018-11-05T15:45:32.782Z,22.77
2018-11-05T15:48:06.941Z,23.83
2018-11-05T15:50:41.597Z,23.43
2018-11-05T15:53:16.284Z,24.83
2018-11-05T15:55:50.245Z,31.33
2018-11-05T15:58:24.570Z,26.97
2018-11-05T16:00:58.735Z,27.47
2018-11-05T16:03:33.083Z,26.43
2018-11-05T16:06:07.315Z,27.60
2018-11-05T16:08:41.583Z,27.63
2018-11-05T16:11:15.778Z,27.77
2018-11-05T16:13:50.070Z,27.90
2018-11-05T16:16:24.360Z,26.57
2018-11-05T16:18:58.552Z,27.23
2018-11-05T16:21:32.785Z,26.20
2018-11-05T16:24:07.108Z,25.13
2018-11-05T16:26:41.322Z,24.87
2018-11-05T16:29:15.573Z,26.37
2018-11-05T16:31:49.987Z,25.97
2018-11-05T16:34:24.298Z,25.10
2018-11-05T16:36:58.466Z,26.47
2018-11-05T16:39:32.817Z,25.73
2018-11-05T16:42:07.104Z,26.43
2018-11-05T16:44:41.430Z,26.57
2018-11-05T16:47:15.706Z,26.23
2018-11-05T16:49:50.005Z,28.20
2018-11-05T16:52:24.243Z,26.10
2018-11-05T16:54:58.563Z,25.87
2018-11-05T16:57:33.027Z,26.20
2018-11-05T17:00:07.527Z,25.70
2018-11-05T17:02:42.423Z,26.37
2018-11-05T17:05:16.418Z,27.27
2018-11-05T17:07:50.682Z,27.70
2018-11-05T17:10:24.965Z,27.20
2018-11-05T17:13:00.094Z,27.33
2018-11-05T17:15:34.355Z,27.70
2018-11-05T17:18:08.625Z,26.10
2018-11-05T17:20:42.933Z,27.93
2018-11-05T17:23:17.121Z,27.60
2018-11-05T17:25:51.441Z,26.43
2018-11-05T17:28:25.754Z,26.73
2018-11-05T17:31:00.062Z,26.63
2018-11-05T17:33:34.457Z,27.73
2018-11-05T17:36:08.706Z,26.50
2018-11-05T17:38:42.887Z,25.57
2018-11-05T17:41:17.318Z,25.47
2018-11-05T17:43:51.740Z,27.07
2018-11-05T17:46:26.019Z,25.70
2018-11-05T17:49:00.302Z,26.37
2018-11-05T17:51:34.737Z,27.13
2018-11-05T17:54:09.158Z,25.73
2018-11-05T17:56:43.378Z,26.37
2018-11-05T17:59:17.550Z,24.70
2018-11-05T18:01:51.778Z,27.73
2018-11-05T18:04:26.049Z,26.57
2018-11-05T18:07:00.142Z,25.60
2018-11-05T18:09:34.523Z,27.63
2018-11-05T18:12:08.978Z,26.63
2018-11-05T18:14:43.330Z,26.70
2018-11-05T18:17:17.615Z,27.80
2018-11-05T18:19:51.922Z,27.70
2018-11-05T18:22:26.474Z,28.63
2018-11-05T18:25:00.850Z,29.63
2018-11-05T18:27:35.302Z,28.43
2018-11-05T18:30:10.302Z,30.67
2018-11-05T18:32:44.554Z,30.30
2018-11-05T18:35:18.818Z,29.60
2018-11-05T18:37:53.115Z,31.40
2018-11-05T18:40:27.490Z,31.33
2018-11-05T18:43:01.821Z,32.07
2018-11-05T18:45:36.154Z,31.97
2018-11-05T18:48:10.350Z,31.77
2018-11-05T18:50:44.618Z,30.87
2018-11-05T18:53:18.799Z,32.10
2018-11-05T18:55:52.994Z,33.17
2018-11-05T18:58:27.222Z,31.77
2018-11-05T19:01:01.446Z,32.30
2018-11-05T19:03:35.841Z,32.43
2018-11-05T19:06:10.073Z,32.37
2018-11-05T19:08:44.346Z,32.40
2018-11-05T19:11:18.488Z,34.17
2018-11-05T19:13:52.742Z,32.10
2018-11-05T19:16:27.071Z,32.47
2018-11-05T19:19:01.393Z,32.13
2018-11-05T19:21:35.707Z,32.17
2018-11-05T19:24:10.111Z,33.70
2018-11-05T19:26:44.262Z,33.13
2018-11-05T19:29:18.543Z,32.63
2018-11-05T19:31:52.815Z,32.30
2018-11-05T19:34:27.103Z,30.97
2018-11-05T19:37:01.507Z,31.77
2018-11-05T19:39:35.718Z,31.63
2018-11-05T19:42:10.133Z,33.33
2018-11-05T19:44:44.374Z,30.80
2018-11-05T19:47:18.754Z,31.50
2018-11-05T19:49:53.157Z,31.57
2018-11-05T19:52:27.379Z,31.60
2018-11-05T19:55:01.572Z,31.13
2018-11-05T19:57:36.390Z,30.27
2018-11-05T20:00:17.707Z,31.23
2018-11-05T20:02:52.129Z,30.30
2018-11-05T20:05:26.471Z,29.63
2018-11-05T20:08:00.755Z,29.40
2018-11-05T20:10:35.081Z,29.03
2018-11-05T20:13:09.333Z,30.63
2018-11-05T20:15:43.879Z,30.90
2018-11-05T20:18:18.062Z,32.03
2018-11-05T20:20:52.419Z,30.63
2018-11-05T20:23:26.823Z,31.67
2018-11-05T20:26:01.246Z,32.97
2018-11-05T20:28:35.591Z,31.73
2018-11-05T20:31:10.018Z,30.67
2018-11-05T20:33:44.303Z,29.47
2018-11-05T20:36:18.542Z,28.57
2018-11-05T20:38:52.834Z,26.93
2018-11-05T20:41:27.361Z,27.13
2018-11-05T20:44:01.639Z,27.60
2018-11-05T20:46:36.113Z,29.47
2018-11-05T20:49:10.245Z,30.97
2018-11-05T20:51:44.686Z,31.40
2018-11-05T20:54:18.966Z,26.67
2018-11-05T20:56:53.134Z,27.80
2018-11-05T20:59:27.306Z,25.87
2018-11-05T21:02:01.613Z,26.40
2018-11-05T21:04:35.877Z,27.00
2018-11-05T21:07:10.390Z,25.37
2018-11-05T21:09:44.551Z,24.30
2018-11-05T21:12:18.994Z,22.57
2018-11-05T21:14:53.190Z,22.53
2018-11-05T21:17:27.550Z,22.50
2018-11-05T21:20:01.803Z,24.10
2018-11-05T21:22:36.270Z,22.67
2018-11-05T21:25:10.299Z,23.00
2018-11-05T21:27:44.945Z,21.77
2018-11-05T21:30:20.585Z,22.07
2018-11-05T21:32:54.794Z,23.13
2018-11-05T21:35:29.022Z,22.13
2018-11-05T21:38:03.326Z,23.57
2018-11-05T21:40:37.634Z,25.80
2018-11-05T21:43:12.034Z,23.20
2018-11-05T21:45:46.357Z,22.57
2018-11-05T21:48:20.613Z,22.43
2018-11-05T21:50:54.890Z,26.03
2018-11-05T21:53:29.123Z,24.37
2018-11-05T21:56:03.445Z,23.70
2018-11-05T21:58:37.777Z,26.67
2018-11-05T22:01:12.128Z,28.00
2018-11-05T22:03:46.427Z,32.87
2018-11-05T22:06:20.859Z,31.20
2018-11-05T22:08:55.129Z,31.77
2018-11-05T22:11:29.471Z,34.30
2018-11-05T22:14:03.826Z,32.97
2018-11-05T22:16:38.132Z,32.00
2018-11-05T22:19:12.501Z,32.03
2018-11-05T22:21:46.874Z,33.40
2018-11-05T22:24:21.278Z,29.40
2018-11-05T22:26:55.578Z,31.47
2018-11-05T22:29:29.921Z,29.27
2018-11-05T22:32:04.437Z,31.67
2018-11-05T22:34:38.694Z,26.03
2018-11-05T22:37:12.995Z,30.57
2018-11-05T22:39:47.298Z,31.63
2018-11-05T22:42:21.574Z,32.60
2018-11-05T22:44:55.865Z,33.70
2018-11-05T22:47:30.166Z,29.60
2018-11-05T22:50:05.116Z,27.87
2018-11-05T22:52:40.182Z,26.53
2018-11-05T22:55:14.466Z,24.77
2018-11-05T22:57:48.841Z,22.67
2018-11-05T23:00:28.655Z,22.97
2018-11-05T23:03:08.358Z,22.70
2018-11-05T23:05:42.583Z,21.67
2018-11-05T23:08:16.857Z,21.47
2018-11-05T23:10:51.137Z,25.63
2018-11-05T23:13:25.570Z,24.40
2018-11-05T23:15:59.725Z,22.77
2018-11-05T23:18:33.970Z,22.57
2018-11-05T23:21:08.258Z,20.37
2018-11-05T23:23:42.554Z,20.13
2018-11-05T23:26:17.050Z,18.37
2018-11-05T23:28:51.283Z,20.77
2018-11-05T23:31:25.540Z,22.43
2018-11-05T23:33:59.870Z,26.30
2018-11-05T23:36:34.202Z,26.03
2018-11-05T23:39:09.371Z,18.70
2018-11-05T23:41:43.662Z,20.03
2018-11-05T23:44:17.974Z,18.80
2018-11-05T23:46:52.141Z,16.17
2018-11-05T23:49:26.325Z,17.17
2018-11-05T23:52:00.669Z,17.77
2018-11-05T23:54:35.082Z,17.47
2018-11-05T23:57:09.309Z,17.50
2018-11-05T23:59:43.611Z,19.00
